Terminal Aerodrome Forecast
Issued by NWS Cleveland, OH

Home | Current Version | Previous Version | Graphics & Text | Print | Product List | Glossary On
Versions: 1 2 3 4 5 6 7 8 9 10 11 12 13 14 15 16 17 18 19 20 21 22 23 24
000
FTUS41 KCLE 282333
TAFMFD
TAF
KMFD 282333Z 2900/2924 11008KT 5SM -RA BR OVC035
     FM290600 09005KT 3SM BR BKN010 OVC025
     FM290900 09005KT 2SM BR OVC005
     FM291400 09007KT 5SM BR VCSH BKN010 OVC025
     FM291800 07010KT P6SM VCSH OVC030=

USA.gov is the U.S. government's official web portal to all federal, state and local government web resources and services.